Time;durP1;ratioP1;P1;durP2;ratioP2;P2;SDS_P1;SDS_P2;PMS_P1;PMS_P2;Temp;Humidity;BMP_temperature;BMP_pressure;BME280_temperature;BME280_humidity;BME280_pressure;Samples;Min_cycle;Max_cycle;Signal;HPM_P1;HPM_P2
2022/06/02 00:00:27;;;;;;;14.20;8.40;;;19.10;99.90;;;;;;4992919;28;20022;-73
2022/06/02 00:03:30;;;;;;;18.83;8.10;;;19.10;99.90;;;;;;4991889;28;20029;-74
2022/06/02 00:06:11;;;;;;;16.77;8.77;;;19.00;99.90;;;;;;4996615;28;20029;-74
2022/06/02 00:08:53;;;;;;;19.60;9.05;;;19.00;99.90;;;;;;4981615;28;20510;-73
2022/06/02 00:11:52;;;;;;;15.25;8.07;;;19.00;99.90;;;;;;4990205;28;20022;-74
2022/06/02 00:14:20;;;;;;;14.38;8.70;;;19.00;99.90;;;;;;4993251;28;20030;-74
2022/06/02 00:17:04;;;;;;;17.50;9.10;;;18.90;99.90;;;;;;4997193;28;20041;-73
2022/06/02 00:19:44;;;;;;;13.90;8.95;;;18.80;99.90;;;;;;4984426;28;20101;-73
2022/06/02 00:22:22;;;;;;;16.73;8.18;;;18.90;99.90;;;;;;4984769;28;20034;-72
2022/06/02 00:25:21;;;;;;;19.55;9.10;;;18.90;99.90;;;;;;4980028;28;20023;-73
2022/06/02 00:28:16;;;;;;;17.38;7.70;;;18.90;99.90;;;;;;4979369;28;20513;-73
2022/06/02 00:30:59;;;;;;;22.35;9.13;;;19.00;99.90;;;;;;4986984;28;20102;-74
2022/06/02 00:33:46;;;;;;;13.77;7.78;;;19.00;99.90;;;;;;4984820;28;20046;-73
2022/06/02 00:36:25;;;;;;;17.02;8.60;;;19.00;99.90;;;;;;4990606;28;20559;-72
2022/06/02 00:38:52;;;;;;;15.25;8.25;;;19.00;99.90;;;;;;4993493;28;20010;-73
2022/06/02 00:41:42;;;;;;;13.65;9.15;;;19.00;99.90;;;;;;4997377;28;20113;-73
2022/06/02 00:44:34;;;;;;;16.13;9.27;;;18.90;99.90;;;;;;4991452;28;20403;-74
2022/06/02 00:47:26;;;;;;;18.33;8.88;;;18.80;99.90;;;;;;4990749;28;20048;-73
2022/06/02 00:50:19;;;;;;;18.75;8.82;;;18.80;99.90;;;;;;5012070;28;20019;-73
2022/06/02 00:52:54;;;;;;;20.50;8.95;;;18.70;99.90;;;;;;5015897;28;20083;-73
2022/06/02 00:58:57;;;;;;;16.17;9.25;;;18.70;99.90;;;;;;5000831;28;20051;-72
2022/06/02 01:01:28;;;;;;;22.52;9.65;;;18.70;99.90;;;;;;5001863;28;20026;-72
2022/06/02 01:03:55;;;;;;;20.88;9.68;;;18.70;99.90;;;;;;5000459;28;20018;-72
2022/06/02 01:06:44;;;;;;;18.58;9.07;;;18.70;99.90;;;;;;5005025;28;20022;-72
2022/06/02 01:09:23;;;;;;;17.95;8.18;;;18.70;99.90;;;;;;4997200;28;20037;-73
2022/06/02 01:12:09;;;;;;;16.98;7.55;;;18.70;99.90;;;;;;5010020;28;20465;-72
2022/06/02 01:15:01;;;;;;;16.00;8.13;;;18.70;99.90;;;;;;5018679;28;20030;-73
2022/06/02 01:18:01;;;;;;;16.83;8.32;;;18.70;99.90;;;;;;5014092;28;20030;-73
2022/06/02 01:20:45;;;;;;;16.37;8.20;;;18.80;99.90;;;;;;5005019;28;20026;-72
2022/06/02 01:23:26;;;;;;;21.08;7.25;;;18.80;99.90;;;;;;5015447;28;20029;-73
2022/06/02 01:26:18;;;;;;;16.70;7.45;;;18.80;99.90;;;;;;5014253;28;20048;-74
2022/06/02 01:28:57;;;;;;;16.33;7.45;;;18.90;99.90;;;;;;5015838;28;20033;-73
2022/06/02 01:31:51;;;;;;;17.70;7.78;;;18.90;99.90;;;;;;5018805;28;20050;-73
2022/06/02 01:34:41;;;;;;;14.23;8.15;;;18.90;99.90;;;;;;4998794;28;20034;-73
2022/06/02 01:37:16;;;;;;;18.88;8.82;;;18.90;99.90;;;;;;5002293;28;20056;-73
2022/06/02 01:40:39;;;;;;;17.02;7.78;;;19.00;99.90;;;;;;5001090;28;20037;-72
2022/06/02 01:43:22;;;;;;;16.95;7.93;;;18.90;99.90;;;;;;4939497;29;20023;-73
2022/06/02 01:45:57;;;;;;;15.10;7.68;;;18.90;99.90;;;;;;5009636;28;20445;-73
2022/06/02 01:48:29;;;;;;;12.98;7.65;;;18.90;99.90;;;;;;5026471;28;20128;-73
2022/06/02 01:51:17;;;;;;;13.55;8.27;;;18.90;99.90;;;;;;5029212;28;20026;-73
2022/06/02 01:54:24;;;;;;;11.60;7.55;;;18.90;99.90;;;;;;5026132;28;20030;-73
2022/06/02 01:56:56;;;;;;;16.40;7.50;;;18.80;99.90;;;;;;5034037;28;20033;-73
2022/06/02 01:59:41;;;;;;;15.18;8.68;;;18.90;99.90;;;;;;5014926;28;20034;-73
2022/06/02 02:02:55;;;;;;;17.33;8.45;;;18.80;99.90;;;;;;5028781;28;20045;-72
2022/06/02 02:05:24;;;;;;;13.20;8.88;;;18.80;99.90;;;;;;4993713;28;20041;-72
2022/06/02 02:08:11;;;;;;;22.40;9.43;;;18.90;99.90;;;;;;5017940;28;20026;-73
2022/06/02 02:10:55;;;;;;;18.60;9.75;;;18.90;99.90;;;;;;5014302;28;20030;-72
2022/06/02 02:13:36;;;;;;;19.02;8.68;;;18.90;99.90;;;;;;5013732;28;20025;-73
2022/06/02 02:16:11;;;;;;;16.58;8.93;;;19.00;99.90;;;;;;5015367;28;20032;-72
2022/06/02 02:19:13;;;;;;;22.38;10.05;;;19.00;99.90;;;;;;5005899;28;20022;-73
2022/06/02 02:21:55;;;;;;;21.98;9.85;;;19.00;99.90;;;;;;5006977;28;20018;-73
2022/06/02 02:24:46;;;;;;;16.15;9.35;;;19.00;99.90;;;;;;5031214;28;20021;-73
2022/06/02 02:27:29;;;;;;;14.48;9.60;;;19.00;99.90;;;;;;5029137;28;20026;-73
2022/06/02 02:30:07;;;;;;;16.73;9.35;;;19.00;99.90;;;;;;5032893;28;20057;-72
2022/06/02 02:32:55;;;;;;;15.38;8.52;;;19.00;99.90;;;;;;5017329;28;20032;-73
2022/06/02 02:35:50;;;;;;;16.92;8.63;;;19.00;99.90;;;;;;5015958;28;20120;-72
2022/06/02 02:38:25;;;;;;;19.88;8.98;;;19.00;99.90;;;;;;5037239;28;20025;-73
2022/06/02 02:41:02;;;;;;;18.23;9.07;;;19.10;99.90;;;;;;5019188;28;20018;-73
2022/06/02 02:43:38;;;;;;;14.13;9.00;;;19.10;99.90;;;;;;5015345;28;20060;-73
2022/06/02 02:46:18;;;;;;;15.52;9.07;;;19.10;99.90;;;;;;5003633;28;20017;-72
2022/06/02 02:49:21;;;;;;;18.42;9.40;;;19.10;99.90;;;;;;5007140;28;20088;-72
2022/06/02 02:52:02;;;;;;;16.08;8.20;;;19.10;99.90;;;;;;5009267;28;20036;-73
2022/06/02 02:54:28;;;;;;;17.70;9.50;;;19.10;99.90;;;;;;5006344;28;20129;-73
2022/06/02 02:57:31;;;;;;;18.02;8.27;;;19.10;99.90;;;;;;5030910;28;20017;-73
2022/06/02 03:00:12;;;;;;;18.35;9.43;;;19.10;99.90;;;;;;5030353;28;20509;-72
2022/06/02 03:02:47;;;;;;;;;;;19.10;99.90;;;;;;5029114;28;20010;-72
2022/06/02 03:05:21;;;;;;;22.30;9.65;;;19.10;99.90;;;;;;5025678;28;19912;-71
2022/06/02 03:07:47;;;;;;;20.98;8.85;;;19.20;99.90;;;;;;5014638;28;20029;-72
2022/06/02 03:10:35;;;;;;;22.15;9.15;;;19.20;99.90;;;;;;5036405;28;20040;-72
2022/06/02 03:13:25;;;;;;;17.48;8.93;;;19.20;99.90;;;;;;5018789;28;20032;-72
2022/06/02 03:15:59;;;;;;;17.38;9.40;;;19.20;99.90;;;;;;5030451;28;20367;-72
2022/06/02 03:18:38;;;;;;;21.98;9.73;;;19.20;99.90;;;;;;5030433;28;20041;-72
2022/06/02 03:21:21;;;;;;;20.30;9.35;;;19.00;99.90;;;;;;5025764;28;20022;-72
2022/06/02 03:24:05;;;;;;;20.30;10.27;;;18.90;99.90;;;;;;5023738;28;20030;-72
2022/06/02 03:27:10;;;;;;;20.17;10.68;;;18.80;99.90;;;;;;5008136;28;20490;-73
2022/06/02 03:29:46;;;;;;;20.77;10.05;;;18.60;99.90;;;;;;5024609;28;20543;-72
2022/06/02 03:32:33;;;;;;;16.98;10.05;;;18.60;99.90;;;;;;5029710;28;20021;-74
2022/06/02 03:35:27;;;;;;;15.95;9.65;;;18.50;99.90;;;;;;5029371;28;20029;-73
2022/06/02 03:38:17;;;;;;;20.00;11.35;;;18.40;99.90;;;;;;5034987;28;20123;-72
2022/06/02 03:41:06;;;;;;;19.23;10.57;;;18.40;99.90;;;;;;5024395;28;20108;-73
2022/06/02 03:43:48;;;;;;;23.35;11.23;;;18.40;99.90;;;;;;5034366;28;20084;-73
2022/06/02 03:46:30;;;;;;;20.83;9.80;;;18.40;99.90;;;;;;5019464;28;20018;-73
2022/06/02 03:49:05;;;;;;;21.75;10.77;;;18.30;99.90;;;;;;5018329;28;20040;-72
2022/06/02 03:52:06;;;;;;;25.80;10.55;;;18.30;99.90;;;;;;5021623;28;20125;-73
2022/06/02 03:55:02;;;;;;;14.52;10.25;;;18.30;99.90;;;;;;5020680;28;20032;-72
2022/06/02 03:57:51;;;;;;;16.67;9.25;;;18.30;99.90;;;;;;5004370;28;20470;-72
2022/06/02 04:00:53;;;;;;;25.35;9.35;;;18.40;99.90;;;;;;5023095;28;20018;-72
2022/06/02 04:03:24;;;;;;;18.65;9.50;;;18.40;99.90;;;;;;4989047;28;20034;-73
2022/06/02 04:06:06;;;;;;;18.38;10.57;;;18.40;99.90;;;;;;5025502;28;20029;-72
2022/06/02 04:08:41;;;;;;;31.65;11.07;;;18.40;99.90;;;;;;5014570;28;20044;-72
2022/06/02 04:13:37;;;;;;;18.25;10.25;;;18.40;99.90;;;;;;5030275;28;20092;-73
2022/06/02 04:14:51;;;;;;;18.70;9.90;;;18.40;99.90;;;;;;5031466;28;20053;-73
2022/06/02 04:17:54;;;;;;;14.40;10.63;;;18.30;99.90;;;;;;5031303;28;20040;-72
2022/06/02 04:20:44;;;;;;;18.92;10.75;;;18.30;99.90;;;;;;5020465;28;20030;-72
2022/06/02 04:23:40;;;;;;;26.88;10.52;;;18.30;99.90;;;;;;5021547;28;20076;-73
2022/06/02 04:26:31;;;;;;;17.23;9.65;;;18.30;99.90;;;;;;5027921;28;20033;-72
2022/06/02 04:29:22;;;;;;;21.58;10.00;;;18.30;99.90;;;;;;5026491;28;20151;-72
2022/06/02 04:32:07;;;;;;;18.58;11.30;;;18.40;99.90;;;;;;5007458;28;20109;-73
2022/06/02 04:35:04;;;;;;;16.45;10.63;;;18.40;99.90;;;;;;5025785;28;20460;-72
2022/06/02 04:37:36;;;;;;;29.45;11.15;;;18.40;99.90;;;;;;5023824;28;20036;-72
2022/06/02 04:40:17;;;;;;;16.83;10.40;;;18.40;99.90;;;;;;5013674;28;20386;-73
2022/06/02 04:43:10;;;;;;;14.93;10.05;;;18.40;99.90;;;;;;5035121;28;20033;-73
2022/06/02 04:46:00;;;;;;;17.65;10.05;;;18.50;99.90;;;;;;5019274;28;20071;-72
2022/06/02 04:48:45;;;;;;;20.58;10.30;;;18.50;99.90;;;;;;5037894;28;20060;-73
2022/06/02 04:51:27;;;;;;;21.92;10.25;;;18.60;99.90;;;;;;5022208;28;20097;-73
2022/06/02 04:54:27;;;;;;;19.63;9.85;;;18.60;99.90;;;;;;5023248;28;20053;-72
2022/06/02 04:57:10;;;;;;;21.55;9.98;;;18.70;99.90;;;;;;5010366;28;20017;-72
2022/06/02 05:00:02;;;;;;;18.33;9.90;;;18.80;99.90;;;;;;5027011;28;20076;-73
2022/06/02 05:02:43;;;;;;;19.65;9.80;;;18.80;99.90;;;;;;5035976;28;20045;-73
2022/06/02 05:05:24;;;;;;;20.20;11.02;;;18.80;99.90;;;;;;5038590;28;20029;-73
2022/06/02 05:07:52;;;;;;;24.02;10.00;;;18.80;99.90;;;;;;5029684;28;20029;-72
2022/06/02 05:10:41;;;;;;;13.52;9.57;;;18.80;99.90;;;;;;5032986;28;20034;-72
2022/06/02 05:13:23;;;;;;;24.05;9.98;;;18.90;99.90;;;;;;5038453;28;20022;-72
2022/06/02 05:16:11;;;;;;;19.60;10.30;;;18.90;99.90;;;;;;5020663;28;20090;-73
2022/06/02 05:18:49;;;;;;;20.45;9.70;;;18.90;99.90;;;;;;5021609;28;20018;-73
2022/06/02 05:21:36;;;;;;;18.30;9.57;;;19.00;99.90;;;;;;5023418;28;20433;-73
2022/06/02 05:24:40;;;;;;;18.48;9.40;;;19.10;99.90;;;;;;5007452;28;20470;-73
2022/06/02 05:27:33;;;;;;;20.38;9.70;;;19.10;99.90;;;;;;5007135;28;20029;-73
2022/06/02 05:30:24;;;;;;;14.65;9.75;;;19.10;99.90;;;;;;5025090;28;20024;-72
2022/06/02 05:33:01;;;;;;;17.42;9.48;;;19.10;99.90;;;;;;5028409;28;20022;-73
2022/06/02 05:36:07;;;;;;;14.45;8.95;;;19.10;99.90;;;;;;5033459;28;20028;-72
2022/06/02 05:38:54;;;;;;;14.88;8.80;;;19.20;99.90;;;;;;5037075;28;20075;-73
2022/06/02 05:41:32;;;;;;;17.10;9.30;;;19.20;99.90;;;;;;5035916;28;20051;-73
2022/06/02 05:44:14;;;;;;;21.02;8.77;;;19.30;99.90;;;;;;5032853;28;20017;-73
2022/06/02 05:47:11;;;;;;;18.52;9.68;;;19.30;99.90;;;;;;5016678;28;20088;-73
2022/06/02 05:50:15;;;;;;;16.90;8.98;;;19.30;99.90;;;;;;5022136;28;20394;-73
2022/06/02 05:53:11;;;;;;;17.73;8.93;;;19.40;99.90;;;;;;5023537;28;20044;-73
2022/06/02 05:56:03;;;;;;;19.10;9.30;;;19.40;99.90;;;;;;5015597;28;20029;-72
2022/06/02 05:58:31;;;;;;;17.02;9.43;;;19.50;99.90;;;;;;5029939;28;20029;-72
2022/06/02 06:01:12;;;;;;;18.23;8.73;;;19.60;99.90;;;;;;5026291;28;20022;-73
2022/06/02 06:03:59;;;;;;;13.30;7.97;;;19.70;99.90;;;;;;5027430;28;20525;-72
2022/06/02 06:06:48;;;;;;;19.45;9.30;;;19.80;99.90;;;;;;5032621;28;20021;-72
2022/06/02 06:09:57;;;;;;;22.17;8.52;;;19.90;99.90;;;;;;5032409;28;20026;-72
2022/06/02 06:12:32;;;;;;;14.13;7.95;;;19.90;99.90;;;;;;5035846;28;20431;-74
2022/06/02 06:15:20;;;;;;;12.10;8.15;;;19.90;99.90;;;;;;5020461;28;20033;-73
2022/06/02 06:18:15;;;;;;;12.20;7.65;;;19.90;99.90;;;;;;5015585;28;20033;-74
2022/06/02 06:21:07;;;;;;;17.42;8.93;;;20.00;99.90;;;;;;5035342;28;20037;-73
2022/06/02 06:24:11;;;;;;;19.60;8.00;;;20.00;99.90;;;;;;5024814;28;20390;-73
2022/06/02 06:26:57;;;;;;;19.75;8.20;;;20.00;99.90;;;;;;4996638;28;20042;-73
2022/06/02 06:29:44;;;;;;;17.08;8.70;;;20.10;99.90;;;;;;5037724;28;20018;-73
2022/06/02 06:32:23;;;;;;;20.65;9.23;;;20.00;99.90;;;;;;5012150;28;20068;-74
2022/06/02 06:35:32;;;;;;;15.88;8.27;;;20.10;99.90;;;;;;5033808;28;20036;-73
2022/06/02 06:38:13;;;;;;;23.23;8.80;;;20.30;99.90;;;;;;5029218;28;20033;-73
2022/06/02 06:40:49;;;;;;;17.48;7.93;;;20.50;99.90;;;;;;5037284;28;20091;-73
2022/06/02 06:43:45;;;;;;;20.67;8.07;;;20.50;99.90;;;;;;5007230;28;20463;-74
2022/06/02 06:46:37;;;;;;;13.88;7.38;;;20.50;99.90;;;;;;5029229;28;20390;-74
2022/06/02 06:49:22;;;;;;;14.93;8.65;;;20.50;99.90;;;;;;5003226;28;20124;-73
2022/06/02 06:52:00;;;;;;;17.75;8.77;;;20.50;99.90;;;;;;5026022;28;20030;-73
2022/06/02 06:54:34;;;;;;;16.17;8.65;;;20.60;99.90;;;;;;5005497;28;20061;-73
2022/06/02 06:57:39;;;;;;;21.98;8.75;;;20.60;99.90;;;;;;5024508;28;20052;-73
2022/06/02 07:00:07;;;;;;;19.20;9.70;;;20.50;99.90;;;;;;4966319;28;20036;-73
2022/06/02 07:02:48;;;;;;;14.23;8.43;;;20.50;99.90;;;;;;5010220;28;20018;-73
2022/06/02 07:05:31;;;;;;;20.50;8.48;;;20.50;99.90;;;;;;5006222;28;20029;-72
2022/06/02 07:08:08;;;;;;;14.75;9.30;;;20.50;99.90;;;;;;5037531;28;20025;-73
2022/06/02 07:10:50;;;;;;;14.30;8.02;;;20.50;99.90;;;;;;5016572;28;20489;-73
2022/06/02 07:13:51;;;;;;;18.15;8.43;;;20.40;99.90;;;;;;5019287;28;20091;-73
2022/06/02 07:16:31;;;;;;;14.70;8.25;;;20.50;99.90;;;;;;4952078;28;20034;-73
2022/06/02 07:19:00;;;;;;;19.40;9.48;;;20.60;99.90;;;;;;5027266;28;20103;-73
2022/06/02 07:21:43;;;;;;;15.27;7.68;;;20.50;99.90;;;;;;5017702;28;20030;-73
2022/06/02 07:24:30;;;;;;;15.25;8.80;;;20.60;99.90;;;;;;5036590;28;20120;-73
2022/06/02 07:27:15;;;;;;;15.23;7.82;;;20.70;99.90;;;;;;5037422;28;20036;-73
2022/06/02 07:30:03;;;;;;;15.02;7.38;;;20.70;99.90;;;;;;5019171;28;20029;-73
2022/06/02 07:32:32;;;;;;;11.65;7.38;;;20.90;99.90;;;;;;5021742;28;20080;-73
2022/06/02 07:35:28;;;;;;;15.27;7.50;;;20.90;99.90;;;;;;5020518;28;20389;-73
2022/06/02 07:38:38;;;;;;;15.60;7.78;;;20.70;99.90;;;;;;5027250;28;20013;-73
2022/06/02 07:41:10;;;;;;;17.30;7.88;;;20.70;99.90;;;;;;5015914;28;20044;-72
2022/06/02 07:43:51;;;;;;;13.45;7.75;;;20.70;99.90;;;;;;5028395;28;20049;-73
2022/06/02 07:46:59;;;;;;;19.98;8.15;;;20.80;99.90;;;;;;5027552;28;20030;-73
2022/06/02 07:49:43;;;;;;;21.42;7.90;;;20.70;99.90;;;;;;5026787;28;20068;-72
2022/06/02 07:52:18;;;;;;;15.02;8.10;;;20.70;99.90;;;;;;5007280;28;20147;-72
2022/06/02 07:55:00;;;;;;;15.68;7.80;;;20.60;99.90;;;;;;5015104;28;20087;-73
2022/06/02 07:57:32;;;;;;;15.30;7.57;;;20.60;99.90;;;;;;5036091;28;20028;-73
2022/06/02 08:00:31;;;;;;;14.18;8.65;;;20.70;99.90;;;;;;5031879;28;20029;-72
2022/06/02 08:03:08;;;;;;;12.55;7.75;;;20.70;99.90;;;;;;4987094;28;20037;-72
2022/06/02 08:05:52;;;;;;;14.48;7.70;;;20.70;99.90;;;;;;5028195;28;20028;-72
2022/06/02 08:08:51;;;;;;;15.90;7.78;;;20.80;99.90;;;;;;5003162;28;20112;-73
2022/06/02 08:11:54;;;;;;;16.88;7.68;;;20.90;99.90;;;;;;5025544;28;20029;-73
2022/06/02 08:14:44;;;;;;;17.65;8.38;;;21.10;99.90;;;;;;5031861;28;20083;-73
2022/06/02 08:17:22;;;;;;;13.57;7.23;;;21.30;99.90;;;;;;5006903;28;20110;-72
2022/06/02 08:20:06;;;;;;;19.73;8.27;;;21.50;99.90;;;;;;5006005;28;20029;-73
2022/06/02 08:22:37;;;;;;;13.88;6.65;;;21.60;99.90;;;;;;5011835;28;20136;-73
2022/06/02 08:25:10;;;;;;;13.50;6.72;;;21.70;99.90;;;;;;5015902;28;20030;-73
2022/06/02 08:27:50;;;;;;;17.13;7.38;;;21.70;99.90;;;;;;5033016;28;20029;-71
2022/06/02 08:30:20;;;;;;;12.90;6.43;;;21.70;99.90;;;;;;5016411;28;20505;-74
2022/06/02 08:32:55;;;;;;;16.45;7.15;;;21.80;99.90;;;;;;5035363;28;20026;-73
2022/06/02 08:35:54;;;;;;;13.57;6.97;;;21.60;99.90;;;;;;5018498;28;20039;-74
2022/06/02 08:38:55;;;;;;;14.57;7.40;;;21.70;99.90;;;;;;5013309;28;20030;-73
2022/06/02 08:41:33;;;;;;;19.30;7.57;;;21.70;99.90;;;;;;4998576;28;20561;-73
2022/06/02 08:44:26;;;;;;;17.88;6.97;;;21.70;99.90;;;;;;5020183;28;20168;-73
2022/06/02 08:47:17;;;;;;;18.15;7.38;;;21.70;99.90;;;;;;5007009;28;20014;-73
2022/06/02 08:50:20;;;;;;;16.80;6.47;;;22.00;99.90;;;;;;5030048;28;20060;-74
2022/06/02 08:53:11;;;;;;;20.77;6.28;;;22.20;99.90;;;;;;5024740;28;20030;-73
2022/06/02 08:55:47;;;;;;;;;;;22.30;99.90;;;;;;5025426;28;20397;-73
2022/06/02 08:58:15;;;;;;;14.80;6.55;;;22.70;99.90;;;;;;5011851;28;19964;-73
2022/06/02 09:01:01;;;;;;;20.33;8.35;;;23.10;99.90;;;;;;5032506;28;20017;-73
2022/06/02 09:03:52;;;;;;;16.30;7.07;;;23.50;99.90;;;;;;5023439;28;20104;-73
2022/06/02 09:06:42;;;;;;;16.55;7.20;;;23.60;99.90;;;;;;5034232;28;20022;-73
2022/06/02 09:09:17;;;;;;;15.30;7.82;;;23.50;99.90;;;;;;5023422;28;20045;-73
2022/06/02 09:12:07;;;;;;;15.02;6.88;;;23.50;99.90;;;;;;5000446;28;20036;-73
2022/06/02 09:14:59;;;;;;;12.52;6.95;;;23.60;99.90;;;;;;5020985;28;20109;-74
2022/06/02 09:17:45;;;;;;;17.02;8.23;;;23.40;99.90;;;;;;5026410;28;20029;-73
2022/06/02 09:20:29;;;;;;;14.73;7.00;;;23.40;99.90;;;;;;5020746;28;20486;-73
2022/06/02 09:23:17;;;;;;;12.70;7.63;;;23.30;99.90;;;;;;5004482;28;20022;-74
2022/06/02 09:26:07;;;;;;;15.98;7.22;;;23.40;99.90;;;;;;5025273;28;21312;-74
2022/06/02 09:28:38;;;;;;;14.80;6.60;;;23.60;99.90;;;;;;5024632;28;20018;-73
2022/06/02 09:31:40;;;;;;;13.88;6.43;;;23.70;99.90;;;;;;5021708;28;20053;-74
2022/06/02 09:34:38;;;;;;;13.55;6.20;;;23.80;99.90;;;;;;5038086;28;20080;-74
2022/06/02 09:37:30;;;;;;;18.92;5.80;;;23.70;99.90;;;;;;5018315;28;20037;-73
2022/06/02 09:40:15;;;;;;;10.45;6.47;;;24.10;99.90;;;;;;5035323;28;20099;-74
2022/06/02 09:43:08;;;;;;;18.15;7.97;;;24.50;99.90;;;;;;5024639;28;20025;-74
2022/06/02 09:46:00;;;;;;;11.20;6.00;;;24.60;99.90;;;;;;5012346;28;20025;-74
2022/06/02 09:49:09;;;;;;;16.80;7.35;;;24.70;99.90;;;;;;5035834;28;20081;-73
2022/06/02 09:51:50;;;;;;;12.93;7.07;;;24.90;99.90;;;;;;5012419;28;20052;-74
2022/06/02 09:54:53;;;;;;;15.93;7.22;;;25.20;99.90;;;;;;5032220;28;20029;-75
2022/06/02 09:58:12;;;;;;;18.73;6.72;;;24.90;99.90;;;;;;5011873;28;20025;-74
2022/06/02 10:01:02;;;;;;;14.10;6.22;;;24.80;99.90;;;;;;4979958;28;20035;-74
2022/06/02 10:04:00;;;;;;;13.60;6.43;;;24.50;99.90;;;;;;5023376;28;20046;-74
2022/06/02 10:06:27;;;;;;;14.45;7.05;;;24.60;99.90;;;;;;5017084;28;20022;-74
2022/06/02 10:08:53;;;;;;;10.90;5.75;;;24.60;99.90;;;;;;5021110;28;20030;-75
2022/06/02 10:11:50;;;;;;;12.82;6.82;;;24.80;99.90;;;;;;5023842;28;20036;-74
2022/06/02 10:14:25;;;;;;;10.52;5.97;;;25.00;99.90;;;;;;5006753;28;20045;-73
2022/06/02 10:17:39;;;;;;;18.48;6.45;;;25.30;99.90;;;;;;5012933;28;20160;-74
2022/06/02 10:20:06;;;;;;;11.70;6.20;;;25.30;99.90;;;;;;5024519;28;20041;-74
2022/06/02 10:22:44;;;;;;;14.68;5.85;;;25.10;99.90;;;;;;5029286;28;20021;-73
2022/06/02 10:25:17;;;;;;;16.88;6.57;;;25.10;99.90;;;;;;5010708;28;20490;-74
2022/06/02 10:28:10;;;;;;;7.50;5.63;;;25.20;99.90;;;;;;5015671;28;20033;-74
2022/06/02 10:31:11;;;;;;;11.45;6.25;;;25.30;99.90;;;;;;5032015;28;20037;-74
2022/06/02 10:34:08;;;;;;;;;;;25.40;99.90;;;;;;5033683;28;20097;-74
2022/06/02 10:37:00;;;;;;;16.83;5.88;;;25.40;99.90;;;;;;5019341;28;19940;-74
2022/06/02 10:39:34;;;;;;;11.23;6.40;;;25.20;99.90;;;;;;5028094;28;20026;-74
2022/06/02 10:42:19;;;;;;;18.13;6.63;;;25.40;99.90;;;;;;5024537;28;20432;-73
2022/06/02 10:44:59;;;;;;;12.35;6.97;;;25.30;99.90;;;;;;5003063;28;20084;-74
2022/06/02 10:47:51;;;;;;;15.23;6.20;;;25.60;99.90;;;;;;5022243;28;20046;-73
2022/06/02 10:50:29;;;;;;;18.98;7.00;;;25.70;99.90;;;;;;5027563;28;20021;-74
2022/06/02 10:53:40;;;;;;;15.48;6.45;;;25.70;99.90;;;;;;5024207;28;20029;-73
2022/06/02 10:56:35;;;;;;;14.73;7.32;;;25.60;99.90;;;;;;5007713;28;20033;-74
2022/06/02 10:59:45;;;;;;;10.65;6.25;;;25.50;99.90;;;;;;5026519;28;20034;-73
2022/06/02 11:02:36;;;;;;;11.02;6.68;;;25.60;99.90;;;;;;4938505;29;20140;-73
2022/06/02 11:05:35;;;;;;;9.00;6.75;;;25.60;99.90;;;;;;4922395;29;20034;-72
2022/06/02 11:08:26;;;;;;;11.70;6.60;;;25.60;99.90;;;;;;5007626;28;20026;-73
2022/06/02 11:11:26;;;;;;;9.15;5.97;;;25.30;99.90;;;;;;5018485;28;20116;-73
2022/06/02 11:14:18;;;;;;;;;;;25.50;99.90;;;;;;5026176;28;20104;-73
2022/06/02 11:16:53;;;;;;;8.27;6.30;;;25.60;99.90;;;;;;5008872;28;19967;-73
2022/06/02 11:19:57;;;;;;;13.35;5.75;;;25.60;99.90;;;;;;5022346;28;20056;-73
2022/06/02 11:22:48;;;;;;;11.10;5.57;;;25.90;99.90;;;;;;5023970;28;20532;-73
2022/06/02 11:25:14;;;;;;;;;;;26.00;99.90;;;;;;5005586;28;20541;-73
2022/06/02 11:28:04;;;;;;;12.77;5.80;;;25.90;99.90;;;;;;5016541;28;19905;-73
2022/06/02 11:31:01;;;;;;;11.77;6.25;;;25.90;99.90;;;;;;5009346;28;20093;-75
2022/06/02 11:33:36;;;;;;;12.73;5.97;;;25.70;99.90;;;;;;5037206;28;20084;-76
2022/06/02 11:36:02;;;;;;;15.85;5.40;;;25.80;99.90;;;;;;5033162;28;20104;-74
2022/06/02 11:38:28;;;;;;;10.27;5.55;;;25.50;99.90;;;;;;5027226;28;20029;-74
2022/06/02 11:41:18;;;;;;;7.35;4.82;;;25.60;99.90;;;;;;5014222;28;20029;-73
2022/06/02 11:43:50;;;;;;;10.83;5.83;;;25.60;99.90;;;;;;5024106;28;20088;-73
2022/06/02 11:46:32;;;;;;;8.07;5.00;;;25.60;99.90;;;;;;5021814;28;20319;-73
2022/06/02 11:49:17;;;;;;;10.68;5.53;;;25.70;99.90;;;;;;5030914;28;20091;-74
2022/06/02 11:52:07;;;;;;;8.55;5.43;;;25.90;99.90;;;;;;5026728;28;20037;-73
2022/06/02 11:54:51;;;;;;;32.25;6.50;;;25.60;99.90;;;;;;5024376;28;20105;-74
2022/06/02 11:57:44;;;;;;;15.02;5.65;;;25.70;99.90;;;;;;5026128;28;20043;-73
2022/06/02 12:00:41;;;;;;;11.07;5.57;;;25.70;99.90;;;;;;5032265;28;20100;-73
2022/06/02 12:03:26;;;;;;;12.65;5.47;;;25.80;99.90;;;;;;5030104;28;20027;-73
2022/06/02 12:06:21;;;;;;;7.53;5.55;;;25.90;99.90;;;;;;5035986;28;20071;-73
2022/06/02 12:09:16;;;;;;;12.27;5.88;;;26.20;99.90;;;;;;4998652;28;20037;-74
2022/06/02 12:12:03;;;;;;;8.43;5.35;;;26.20;99.90;;;;;;5018150;28;20483;-74
2022/06/02 12:15:00;;;;;;;13.05;5.90;;;26.30;99.90;;;;;;5020225;28;20112;-73
2022/06/02 12:18:01;;;;;;;14.93;6.43;;;26.30;99.90;;;;;;5020161;28;20548;-73
2022/06/02 12:21:00;;;;;;;12.90;6.22;;;26.10;99.90;;;;;;5021338;28;20494;-74
2022/06/02 12:24:13;;;;;;;8.57;5.78;;;26.20;99.90;;;;;;5022189;28;20104;-75
2022/06/02 12:27:01;;;;;;;10.52;5.97;;;25.90;99.90;;;;;;4949366;28;20079;-73
2022/06/02 12:29:42;;;;;;;16.67;5.97;;;25.70;99.90;;;;;;5030455;28;20053;-73
2022/06/02 12:32:23;;;;;;;11.90;6.10;;;25.90;99.90;;;;;;5009177;28;20695;-74
2022/06/02 12:35:30;;;;;;;9.95;4.35;;;26.20;99.90;;;;;;5031578;28;20104;-74
2022/06/02 12:38:34;;;;;;;12.55;5.55;;;26.10;99.90;;;;;;5008931;28;20374;-74
2022/06/02 12:41:21;;;;;;;12.07;6.10;;;26.30;99.90;;;;;;4999650;28;20018;-74
2022/06/02 12:44:24;;;;;;;10.25;6.05;;;26.70;99.90;;;;;;5018892;28;20022;-74
2022/06/02 12:47:17;;;;;;;11.40;6.32;;;26.80;99.90;;;;;;5021114;28;20057;-75
2022/06/02 12:50:02;;;;;;;11.95;5.97;;;26.50;99.90;;;;;;5020126;28;20022;-73
2022/06/02 12:52:59;;;;;;;11.77;6.10;;;26.30;99.90;;;;;;5022344;28;20024;-74
2022/06/02 12:55:43;;;;;;;13.68;5.97;;;26.60;99.90;;;;;;5022471;28;20034;-74
2022/06/02 12:58:27;;;;;;;10.68;6.18;;;26.30;99.90;;;;;;5026148;28;20025;-74
2022/06/02 13:01:21;;;;;;;12.23;5.70;;;26.20;99.90;;;;;;5025977;28;20021;-74
2022/06/02 13:04:17;;;;;;;11.25;5.00;;;26.30;99.90;;;;;;5025555;28;20080;-74
2022/06/02 13:07:21;;;;;;;14.43;5.47;;;26.10;99.90;;;;;;5007283;28;20025;-73
2022/06/02 13:10:13;;;;;;;9.45;5.47;;;26.40;99.90;;;;;;5036133;28;20025;-73
2022/06/02 13:13:15;;;;;;;11.57;5.07;;;26.70;99.90;;;;;;5036145;28;20032;-73
2022/06/02 13:16:15;;;;;;;16.35;6.05;;;27.10;99.90;;;;;;4980351;28;20045;-73
2022/06/02 13:18:50;;;;;;;10.50;5.28;;;27.10;99.90;;;;;;5016425;28;20045;-73
2022/06/02 13:21:30;;;;;;;12.35;5.43;;;27.50;99.90;;;;;;5032783;28;20026;-72
2022/06/02 13:24:22;;;;;;;12.15;5.50;;;27.50;99.90;;;;;;5030419;28;20026;-72
2022/06/02 13:27:09;;;;;;;12.32;4.82;;;27.50;99.90;;;;;;5034957;28;20086;-73
2022/06/02 13:29:56;;;;;;;7.55;4.80;;;27.50;99.90;;;;;;5030249;28;20059;-73
2022/06/02 13:32:31;;;;;;;10.88;6.63;;;27.60;99.90;;;;;;5018786;28;20029;-73
2022/06/02 13:35:47;;;;;;;10.32;5.15;;;27.20;99.90;;;;;;5039052;28;20033;-73
2022/06/02 13:38:29;;;;;;;11.35;5.60;;;27.30;99.90;;;;;;5020919;28;20093;-73
2022/06/02 13:41:15;;;;;;;17.85;5.85;;;27.30;99.90;;;;;;5024202;28;20049;-73
2022/06/02 13:43:47;;;;;;;15.02;5.55;;;27.50;99.90;;;;;;5029979;28;20018;-72
2022/06/02 13:46:47;;;;;;;7.82;4.90;;;27.60;99.90;;;;;;5031275;28;20029;-72
2022/06/02 13:49:46;;;;;;;8.70;4.23;;;27.90;99.90;;;;;;5029274;28;20041;-73
2022/06/02 13:52:42;;;;;;;12.50;4.68;;;28.10;99.90;;;;;;5027535;28;20032;-72
2022/06/02 13:58:49;;;;;;;9.07;3.58;;;28.20;99.90;;;;;;4993024;28;20037;-72
2022/06/02 14:01:47;;;;;;;16.65;4.97;;;28.20;99.90;;;;;;5033995;28;20018;-72
2022/06/02 14:04:31;;;;;;;9.60;4.90;;;28.20;99.90;;;;;;4950511;28;20042;-72
2022/06/02 14:07:00;;;;;;;11.98;4.70;;;28.30;99.90;;;;;;5010412;28;20018;-72
2022/06/02 14:10:07;;;;;;;9.40;4.53;;;28.10;99.90;;;;;;5024506;28;20589;-73
2022/06/02 14:12:56;;;;;;;10.63;4.28;;;27.90;99.90;;;;;;5022101;28;20394;-73
2022/06/02 14:15:41;;;;;;;10.25;4.70;;;28.20;99.90;;;;;;5027143;28;20034;-73
2022/06/02 14:18:11;;;;;;;8.90;4.32;;;28.30;99.90;;;;;;5021836;28;20097;-74
2022/06/02 14:20:50;;;;;;;12.73;4.50;;;28.30;99.90;;;;;;5032509;28;20029;-73
2022/06/02 14:23:25;;;;;;;10.65;4.72;;;28.70;99.90;;;;;;5011819;28;20037;-74
2022/06/02 14:25:57;;;;;;;11.50;4.95;;;29.10;99.90;;;;;;5013156;28;20027;-73